gmu.edu alexa rank chart, gmu.edu alexa rank daily changes

gmu.edu alexa rank chart, gmu.edu alexa rank daily changes

gmu.edu
Actual rank:
5 865

RANK HISTORY

Date Rank Diff
2017/12/13 5 865 -52
2017/12/12 5 917 -6
2017/12/11 5 923 +79
2017/12/10 5 844 +30
2017/12/09 5 814 -14
2017/12/08 5 828 +27
2017/12/07 5 801 -57
2017/12/06 5 858 -81
2017/12/05 5 939 -52
2017/12/04 5 991 +97
2017/12/03 5 894 +57
2017/12/02 5 837 -17
2017/12/01 5 854 +11
2017/11/30 5 843 -56
2017/11/28 5 899 +45
2017/11/27 5 854 +116
2017/11/26 5 738 +102
2017/11/25 5 636 +101
2017/11/24 5 535 +56
2017/11/23 5 479 -43
2017/11/22 5 522 -8
2017/11/21 5 530 +22
2017/11/20 5 508 +76
2017/11/19 5 432 +58
2017/11/18 5 374 -2
2017/11/17 5 376 -46
2017/11/16 5 422 -37
2017/11/15 5 459 -41
2017/11/14 5 500 +21
2017/11/13 5 479 +66
2017/11/12 5 413 +54
2017/11/11 5 359 -51
2017/11/10 5 410 -37
2017/11/09 5 447 -60
2017/11/08 5 507 -16
2017/11/07 5 523 +45
2017/11/06 5 478 +48
2017/11/05 5 430 +65
2017/11/04 5 365 -8
2017/11/03 5 373 +10
2017/11/02 5 363 -33
2017/11/01 5 396 -31
2017/10/31 5 427 +6
2017/10/30 5 421 +44
2017/10/29 5 377 +35
2017/10/28 5 342 -6
2017/10/27 5 348 +3
2017/10/26 5 345 -24
2017/10/25 5 369 -40
2017/10/24 5 409 -10
2017/10/23 5 419 +32
2017/10/22 5 387 +16
2017/10/21 5 371 +16
2017/10/20 5 355 -21
2017/10/19 5 376 -34
2017/10/18 5 410 -67
2017/10/17 5 477 +23
2017/10/16 5 454 +99
2017/10/14 5 355

WIDGET FOR YOUR SITE

DOMAINS WITH THE NEAREST RANK

Domain Rank
toranoana.jp 5 860
madewell.com 5 861
lurkmore.to 5 862
zaobao.com 5 863
suruga-ya.jp 5 864
gmu.edu 5 865
qiku.com 5 866
govdelivery.com 5 867
huntington.com 5 868
seedr.cc 5 869
coinigy.com 5 870

DOMAINS WITH THE NEAREST RANK BY TLD .edu

Domain Rank
colostate.edu 5 423
uga.edu 5 581
ku.edu 5 808
temple.edu 5 838
caltech.edu 5 854
gmu.edu 5 865
lamar.edu 5 930
georgetown.edu 6 087
uconn.edu 6 101
buffalo.edu 6 248
utdallas.edu 6 290